sensor_id;sensor_type;location;lat;lon;timestamp;P1;durP1;ratioP1;P2;durP2;ratioP2
10389;SDS011;5241;47.830;12.972;2023-04-03T00:01:07;19.03;;;13.67;;
10389;SDS011;5241;47.830;12.972;2023-04-03T00:03:33;18.37;;;14.20;;
10389;SDS011;5241;47.830;12.972;2023-04-03T00:05:59;17.50;;;13.77;;
10389;SDS011;5241;47.830;12.972;2023-04-03T00:08:25;19.80;;;13.70;;
10389;SDS011;5241;47.830;12.972;2023-04-03T00:10:51;19.10;;;14.83;;
10389;SDS011;5241;47.830;12.972;2023-04-03T00:13:16;18.77;;;14.00;;
10389;SDS011;5241;47.830;12.972;2023-04-03T00:15:42;17.00;;;13.17;;
10389;SDS011;5241;47.830;12.972;2023-04-03T00:18:08;15.73;;;12.67;;
10389;SDS011;5241;47.830;12.972;2023-04-03T00:20:34;18.93;;;12.97;;
10389;SDS011;5241;47.830;12.972;2023-04-03T00:23:00;16.23;;;13.47;;
10389;SDS011;5241;47.830;12.972;2023-04-03T00:25:26;15.23;;;11.93;;
10389;SDS011;5241;47.830;12.972;2023-04-03T00:27:52;17.20;;;13.37;;
10389;SDS011;5241;47.830;12.972;2023-04-03T00:30:18;16.60;;;11.83;;
10389;SDS011;5241;47.830;12.972;2023-04-03T00:32:47;16.57;;;12.43;;
10389;SDS011;5241;47.830;12.972;2023-04-03T00:35:13;18.70;;;12.87;;
10389;SDS011;5241;47.830;12.972;2023-04-03T00:37:40;17.00;;;11.70;;
10389;SDS011;5241;47.830;12.972;2023-04-03T00:40:07;15.30;;;11.93;;
10389;SDS011;5241;47.830;12.972;2023-04-03T00:42:33;16.90;;;12.13;;
10389;SDS011;5241;47.830;12.972;2023-04-03T00:47:26;14.97;;;11.97;;
10389;SDS011;5241;47.830;12.972;2023-04-03T00:49:52;15.07;;;11.97;;
10389;SDS011;5241;47.830;12.972;2023-04-03T00:52:19;14.97;;;12.00;;
10389;SDS011;5241;47.830;12.972;2023-04-03T00:54:48;15.83;;;12.33;;
10389;SDS011;5241;47.830;12.972;2023-04-03T00:57:15;16.93;;;12.93;;
10389;SDS011;5241;47.830;12.972;2023-04-03T00:59:43;18.23;;;13.13;;
10389;SDS011;5241;47.830;12.972;2023-04-03T01:02:13;17.03;;;11.50;;
10389;SDS011;5241;47.830;12.972;2023-04-03T01:04:40;16.03;;;12.20;;
10389;SDS011;5241;47.830;12.972;2023-04-03T01:07:09;17.00;;;12.37;;
10389;SDS011;5241;47.830;12.972;2023-04-03T01:09:40;17.40;;;11.83;;
10389;SDS011;5241;47.830;12.972;2023-04-03T01:12:16;16.43;;;11.90;;
10389;SDS011;5241;47.830;12.972;2023-04-03T01:14:52;15.83;;;12.23;;
10389;SDS011;5241;47.830;12.972;2023-04-03T01:17:34;17.40;;;12.47;;
10389;SDS011;5241;47.830;12.972;2023-04-03T01:25:51;18.13;;;12.17;;
10389;SDS011;5241;47.830;12.972;2023-04-03T01:28:21;17.40;;;13.23;;
10389;SDS011;5241;47.830;12.972;2023-04-03T01:30:55;16.80;;;12.30;;
10389;SDS011;5241;47.830;12.972;2023-04-03T01:33:30;15.90;;;12.57;;
10389;SDS011;5241;47.830;12.972;2023-04-03T01:35:56;15.63;;;12.20;;
10389;SDS011;5241;47.830;12.972;2023-04-03T01:38:21;18.90;;;13.73;;
10389;SDS011;5241;47.830;12.972;2023-04-03T01:40:47;19.13;;;13.03;;
10389;SDS011;5241;47.830;12.972;2023-04-03T01:43:12;18.83;;;12.83;;
10389;SDS011;5241;47.830;12.972;2023-04-03T01:45:38;20.13;;;12.83;;
10389;SDS011;5241;47.830;12.972;2023-04-03T01:48:04;21.23;;;14.13;;
10389;SDS011;5241;47.830;12.972;2023-04-03T01:50:30;17.50;;;13.07;;
10389;SDS011;5241;47.830;12.972;2023-04-03T01:52:55;19.27;;;14.03;;
10389;SDS011;5241;47.830;12.972;2023-04-03T01:55:21;16.00;;;13.50;;
10389;SDS011;5241;47.830;12.972;2023-04-03T01:57:47;18.37;;;13.07;;
10389;SDS011;5241;47.830;12.972;2023-04-03T02:00:13;18.90;;;13.93;;
10389;SDS011;5241;47.830;12.972;2023-04-03T02:02:39;17.67;;;13.70;;
10389;SDS011;5241;47.830;12.972;2023-04-03T02:05:04;18.40;;;14.27;;
10389;SDS011;5241;47.830;12.972;2023-04-03T02:07:30;17.97;;;14.00;;
10389;SDS011;5241;47.830;12.972;2023-04-03T02:09:56;19.77;;;14.30;;
10389;SDS011;5241;47.830;12.972;2023-04-03T02:12:21;19.50;;;14.33;;
10389;SDS011;5241;47.830;12.972;2023-04-03T02:14:47;19.00;;;14.13;;
10389;SDS011;5241;47.830;12.972;2023-04-03T02:17:12;19.87;;;14.87;;
10389;SDS011;5241;47.830;12.972;2023-04-03T02:19:38;20.67;;;15.07;;
10389;SDS011;5241;47.830;12.972;2023-04-03T02:22:03;20.67;;;14.37;;
10389;SDS011;5241;47.830;12.972;2023-04-03T02:24:29;21.83;;;14.37;;
10389;SDS011;5241;47.830;12.972;2023-04-03T02:26:55;22.70;;;15.80;;
10389;SDS011;5241;47.830;12.972;2023-04-03T02:29:21;21.30;;;15.40;;
10389;SDS011;5241;47.830;12.972;2023-04-03T02:31:47;21.93;;;15.60;;
10389;SDS011;5241;47.830;12.972;2023-04-03T02:34:12;21.03;;;15.40;;
10389;SDS011;5241;47.830;12.972;2023-04-03T02:36:38;24.73;;;16.43;;
10389;SDS011;5241;47.830;12.972;2023-04-03T02:39:04;23.13;;;15.33;;
10389;SDS011;5241;47.830;12.972;2023-04-03T02:41:30;23.13;;;16.43;;
10389;SDS011;5241;47.830;12.972;2023-04-03T02:44:00;23.07;;;16.30;;
10389;SDS011;5241;47.830;12.972;2023-04-03T02:46:26;22.70;;;15.43;;
10389;SDS011;5241;47.830;12.972;2023-04-03T02:48:52;23.40;;;16.63;;
10389;SDS011;5241;47.830;12.972;2023-04-03T02:51:18;23.90;;;17.17;;
10389;SDS011;5241;47.830;12.972;2023-04-03T02:53:43;24.57;;;17.33;;
10389;SDS011;5241;47.830;12.972;2023-04-03T02:56:09;24.13;;;17.40;;
10389;SDS011;5241;47.830;12.972;2023-04-03T02:58:35;23.70;;;16.87;;
10389;SDS011;5241;47.830;12.972;2023-04-03T03:01:00;25.27;;;17.53;;
10389;SDS011;5241;47.830;12.972;2023-04-03T03:03:26;28.33;;;19.10;;
10389;SDS011;5241;47.830;12.972;2023-04-03T03:06:02;24.23;;;17.53;;
10389;SDS011;5241;47.830;12.972;2023-04-03T03:08:27;27.77;;;18.67;;
10389;SDS011;5241;47.830;12.972;2023-04-03T03:10:53;24.07;;;17.60;;
10389;SDS011;5241;47.830;12.972;2023-04-03T03:13:18;25.93;;;18.63;;
10389;SDS011;5241;47.830;12.972;2023-04-03T03:15:44;27.47;;;18.90;;
10389;SDS011;5241;47.830;12.972;2023-04-03T03:18:09;27.67;;;18.77;;
10389;SDS011;5241;47.830;12.972;2023-04-03T03:20:35;26.53;;;18.40;;
10389;SDS011;5241;47.830;12.972;2023-04-03T03:23:00;26.37;;;18.47;;
10389;SDS011;5241;47.830;12.972;2023-04-03T03:25:26;27.17;;;18.13;;
10389;SDS011;5241;47.830;12.972;2023-04-03T03:27:51;25.53;;;18.00;;
10389;SDS011;5241;47.830;12.972;2023-04-03T03:30:17;24.83;;;18.27;;
10389;SDS011;5241;47.830;12.972;2023-04-03T03:32:42;23.80;;;17.03;;
10389;SDS011;5241;47.830;12.972;2023-04-03T03:35:08;26.50;;;18.77;;
10389;SDS011;5241;47.830;12.972;2023-04-03T03:37:34;26.83;;;19.13;;
10389;SDS011;5241;47.830;12.972;2023-04-03T03:39:59;26.80;;;18.40;;
10389;SDS011;5241;47.830;12.972;2023-04-03T03:42:25;25.97;;;17.50;;
10389;SDS011;5241;47.830;12.972;2023-04-03T03:44:50;27.67;;;20.20;;
10389;SDS011;5241;47.830;12.972;2023-04-03T03:47:16;27.87;;;18.33;;
10389;SDS011;5241;47.830;12.972;2023-04-03T03:49:42;25.93;;;18.33;;
10389;SDS011;5241;47.830;12.972;2023-04-03T03:52:07;26.17;;;18.47;;
10389;SDS011;5241;47.830;12.972;2023-04-03T03:54:35;28.23;;;19.93;;
10389;SDS011;5241;47.830;12.972;2023-04-03T03:57:02;26.83;;;19.97;;
10389;SDS011;5241;47.830;12.972;2023-04-03T03:59:27;24.83;;;18.33;;
10389;SDS011;5241;47.830;12.972;2023-04-03T04:01:53;27.07;;;18.43;;
10389;SDS011;5241;47.830;12.972;2023-04-03T04:04:18;28.73;;;19.50;;
10389;SDS011;5241;47.830;12.972;2023-04-03T04:06:44;29.90;;;19.93;;
10389;SDS011;5241;47.830;12.972;2023-04-03T04:09:10;26.10;;;18.47;;
10389;SDS011;5241;47.830;12.972;2023-04-03T04:11:36;27.43;;;18.57;;
10389;SDS011;5241;47.830;12.972;2023-04-03T04:14:01;25.77;;;18.30;;
10389;SDS011;5241;47.830;12.972;2023-04-03T04:16:27;26.53;;;18.60;;
10389;SDS011;5241;47.830;12.972;2023-04-03T04:18:52;23.57;;;17.17;;
10389;SDS011;5241;47.830;12.972;2023-04-03T04:21:18;25.53;;;18.30;;
10389;SDS011;5241;47.830;12.972;2023-04-03T04:23:44;24.03;;;17.27;;
10389;SDS011;5241;47.830;12.972;2023-04-03T04:26:09;26.43;;;18.57;;
10389;SDS011;5241;47.830;12.972;2023-04-03T04:28:35;21.30;;;17.13;;
10389;SDS011;5241;47.830;12.972;2023-04-03T04:31:00;24.40;;;16.70;;
10389;SDS011;5241;47.830;12.972;2023-04-03T04:33:26;21.83;;;17.03;;
10389;SDS011;5241;47.830;12.972;2023-04-03T04:35:52;23.20;;;17.37;;
10389;SDS011;5241;47.830;12.972;2023-04-03T04:38:17;22.30;;;16.73;;
10389;SDS011;5241;47.830;12.972;2023-04-03T04:40:43;24.97;;;17.20;;
10389;SDS011;5241;47.830;12.972;2023-04-03T04:43:08;24.97;;;16.40;;
10389;SDS011;5241;47.830;12.972;2023-04-03T04:45:35;25.90;;;17.07;;
10389;SDS011;5241;47.830;12.972;2023-04-03T04:48:01;20.87;;;16.27;;
10389;SDS011;5241;47.830;12.972;2023-04-03T04:50:26;21.33;;;16.07;;
10389;SDS011;5241;47.830;12.972;2023-04-03T04:52:52;20.47;;;15.90;;
10389;SDS011;5241;47.830;12.972;2023-04-03T04:55:17;22.67;;;16.40;;
10389;SDS011;5241;47.830;12.972;2023-04-03T04:57:43;21.30;;;15.03;;
10389;SDS011;5241;47.830;12.972;2023-04-03T05:00:08;21.43;;;15.47;;
10389;SDS011;5241;47.830;12.972;2023-04-03T05:02:34;19.50;;;14.50;;
10389;SDS011;5241;47.830;12.972;2023-04-03T05:05:00;21.03;;;14.50;;
10389;SDS011;5241;47.830;12.972;2023-04-03T05:07:25;21.33;;;15.17;;
10389;SDS011;5241;47.830;12.972;2023-04-03T05:09:51;18.53;;;14.47;;
10389;SDS011;5241;47.830;12.972;2023-04-03T05:12:17;21.30;;;16.00;;
10389;SDS011;5241;47.830;12.972;2023-04-03T05:14:42;23.13;;;14.60;;
10389;SDS011;5241;47.830;12.972;2023-04-03T05:17:08;19.30;;;14.67;;
10389;SDS011;5241;47.830;12.972;2023-04-03T05:19:33;20.73;;;15.60;;
10389;SDS011;5241;47.830;12.972;2023-04-03T05:21:59;23.10;;;16.50;;
10389;SDS011;5241;47.830;12.972;2023-04-03T05:24:24;23.53;;;16.93;;
10389;SDS011;5241;47.830;12.972;2023-04-03T05:26:51;23.23;;;17.37;;
10389;SDS011;5241;47.830;12.972;2023-04-03T05:29:16;23.20;;;17.70;;
10389;SDS011;5241;47.830;12.972;2023-04-03T05:31:42;21.20;;;16.23;;
10389;SDS011;5241;47.830;12.972;2023-04-03T05:34:07;20.93;;;15.03;;
10389;SDS011;5241;47.830;12.972;2023-04-03T05:36:33;21.30;;;15.57;;
10389;SDS011;5241;47.830;12.972;2023-04-03T05:38:58;19.23;;;15.30;;
10389;SDS011;5241;47.830;12.972;2023-04-03T05:41:24;22.57;;;15.10;;
10389;SDS011;5241;47.830;12.972;2023-04-03T05:43:50;18.10;;;14.10;;
10389;SDS011;5241;47.830;12.972;2023-04-03T05:46:16;19.40;;;14.13;;
10389;SDS011;5241;47.830;12.972;2023-04-03T05:48:44;17.27;;;14.10;;
10389;SDS011;5241;47.830;12.972;2023-04-03T05:51:21;20.63;;;14.23;;
10389;SDS011;5241;47.830;12.972;2023-04-03T05:53:48;21.30;;;15.03;;
10389;SDS011;5241;47.830;12.972;2023-04-03T05:56:20;17.37;;;13.23;;
10389;SDS011;5241;47.830;12.972;2023-04-03T05:58:46;16.57;;;13.13;;
10389;SDS011;5241;47.830;12.972;2023-04-03T06:01:11;18.70;;;14.20;;
10389;SDS011;5241;47.830;12.972;2023-04-03T06:03:37;20.23;;;13.77;;
10389;SDS011;5241;47.830;12.972;2023-04-03T06:06:04;16.60;;;12.97;;
10389;SDS011;5241;47.830;12.972;2023-04-03T06:08:30;17.33;;;13.63;;
10389;SDS011;5241;47.830;12.972;2023-04-03T06:10:56;16.03;;;13.33;;
10389;SDS011;5241;47.830;12.972;2023-04-03T06:13:22;17.63;;;12.07;;
10389;SDS011;5241;47.830;12.972;2023-04-03T06:15:47;15.47;;;12.90;;
10389;SDS011;5241;47.830;12.972;2023-04-03T06:18:13;17.30;;;13.00;;
10389;SDS011;5241;47.830;12.972;2023-04-03T06:20:39;15.67;;;11.93;;
10389;SDS011;5241;47.830;12.972;2023-04-03T06:23:04;15.70;;;12.27;;
10389;SDS011;5241;47.830;12.972;2023-04-03T06:25:30;15.90;;;12.47;;
10389;SDS011;5241;47.830;12.972;2023-04-03T06:27:56;14.10;;;11.63;;
10389;SDS011;5241;47.830;12.972;2023-04-03T06:30:22;14.60;;;11.40;;
10389;SDS011;5241;47.830;12.972;2023-04-03T06:32:47;17.20;;;11.70;;
10389;SDS011;5241;47.830;12.972;2023-04-03T06:35:13;14.90;;;11.50;;
10389;SDS011;5241;47.830;12.972;2023-04-03T06:37:39;13.50;;;11.40;;
10389;SDS011;5241;47.830;12.972;2023-04-03T06:40:05;13.13;;;10.83;;
10389;SDS011;5241;47.830;12.972;2023-04-03T06:42:31;13.97;;;10.87;;
10389;SDS011;5241;47.830;12.972;2023-04-03T06:44:56;12.03;;;10.40;;
10389;SDS011;5241;47.830;12.972;2023-04-03T06:47:22;10.90;;;9.27;;
10389;SDS011;5241;47.830;12.972;2023-04-03T06:49:47;11.60;;;9.07;;
10389;SDS011;5241;47.830;12.972;2023-04-03T06:52:13;13.23;;;9.40;;
10389;SDS011;5241;47.830;12.972;2023-04-03T06:54:39;12.27;;;9.50;;
10389;SDS011;5241;47.830;12.972;2023-04-03T06:57:05;9.50;;;8.37;;
10389;SDS011;5241;47.830;12.972;2023-04-03T06:59:31;10.23;;;9.13;;
10389;SDS011;5241;47.830;12.972;2023-04-03T07:01:57;12.50;;;9.10;;
10389;SDS011;5241;47.830;12.972;2023-04-03T07:04:24;9.93;;;8.90;;
10389;SDS011;5241;47.830;12.972;2023-04-03T07:06:50;11.20;;;8.57;;
10389;SDS011;5241;47.830;12.972;2023-04-03T07:09:17;11.40;;;7.83;;
10389;SDS011;5241;47.830;12.972;2023-04-03T07:11:43;9.50;;;8.47;;
10389;SDS011;5241;47.830;12.972;2023-04-03T07:14:09;9.80;;;8.30;;
10389;SDS011;5241;47.830;12.972;2023-04-03T07:16:35;8.37;;;7.47;;
10389;SDS011;5241;47.830;12.972;2023-04-03T07:19:01;10.40;;;7.87;;
10389;SDS011;5241;47.830;12.972;2023-04-03T07:21:27;8.80;;;7.73;;
10389;SDS011;5241;47.830;12.972;2023-04-03T07:23:53;11.13;;;8.10;;
10389;SDS011;5241;47.830;12.972;2023-04-03T07:26:18;9.67;;;8.50;;
10389;SDS011;5241;47.830;12.972;2023-04-03T07:28:45;9.37;;;7.90;;
10389;SDS011;5241;47.830;12.972;2023-04-03T07:31:13;8.90;;;8.00;;
10389;SDS011;5241;47.830;12.972;2023-04-03T07:33:40;9.20;;;6.70;;
10389;SDS011;5241;47.830;12.972;2023-04-03T07:36:06;8.67;;;7.00;;
10389;SDS011;5241;47.830;12.972;2023-04-03T07:38:34;9.13;;;7.40;;
10389;SDS011;5241;47.830;12.972;2023-04-03T07:41:00;8.60;;;7.00;;
10389;SDS011;5241;47.830;12.972;2023-04-03T07:43:26;7.47;;;6.57;;
10389;SDS011;5241;47.830;12.972;2023-04-03T07:45:51;9.00;;;6.93;;
10389;SDS011;5241;47.830;12.972;2023-04-03T07:48:19;6.97;;;6.27;;
10389;SDS011;5241;47.830;12.972;2023-04-03T07:50:46;7.33;;;6.53;;
10389;SDS011;5241;47.830;12.972;2023-04-03T07:53:11;7.27;;;6.57;;
10389;SDS011;5241;47.830;12.972;2023-04-03T07:55:37;6.37;;;5.43;;
10389;SDS011;5241;47.830;12.972;2023-04-03T07:58:08;6.33;;;5.73;;
10389;SDS011;5241;47.830;12.972;2023-04-03T08:00:39;6.37;;;5.40;;
10389;SDS011;5241;47.830;12.972;2023-04-03T08:03:05;6.23;;;5.63;;
10389;SDS011;5241;47.830;12.972;2023-04-03T08:05:36;5.67;;;5.00;;
10389;SDS011;5241;47.830;12.972;2023-04-03T08:08:03;6.97;;;5.77;;
10389;SDS011;5241;47.830;12.972;2023-04-03T08:10:30;6.33;;;5.70;;
10389;SDS011;5241;47.830;12.972;2023-04-03T08:12:56;5.83;;;4.87;;
10389;SDS011;5241;47.830;12.972;2023-04-03T08:15:21;5.47;;;4.77;;
10389;SDS011;5241;47.830;12.972;2023-04-03T08:17:47;5.13;;;4.63;;
10389;SDS011;5241;47.830;12.972;2023-04-03T08:20:12;6.57;;;4.90;;
10389;SDS011;5241;47.830;12.972;2023-04-03T08:22:38;5.43;;;4.43;;
10389;SDS011;5241;47.830;12.972;2023-04-03T08:25:04;4.97;;;4.47;;
10389;SDS011;5241;47.830;12.972;2023-04-03T08:27:30;4.57;;;4.17;;
10389;SDS011;5241;47.830;12.972;2023-04-03T08:29:56;5.00;;;4.47;;
10389;SDS011;5241;47.830;12.972;2023-04-03T08:32:21;4.80;;;4.40;;
10389;SDS011;5241;47.830;12.972;2023-04-03T08:34:48;5.47;;;4.70;;
10389;SDS011;5241;47.830;12.972;2023-04-03T08:37:13;5.83;;;4.50;;
10389;SDS011;5241;47.830;12.972;2023-04-03T08:39:40;5.13;;;4.10;;
10389;SDS011;5241;47.830;12.972;2023-04-03T08:42:19;6.30;;;4.20;;
10389;SDS011;5241;47.830;12.972;2023-04-03T08:44:56;4.23;;;3.73;;
10389;SDS011;5241;47.830;12.972;2023-04-03T08:47:37;6.20;;;3.93;;
10389;SDS011;5241;47.830;12.972;2023-04-03T08:50:07;5.03;;;3.97;;
10389;SDS011;5241;47.830;12.972;2023-04-03T08:58:11;4.20;;;3.80;;
10389;SDS011;5241;47.830;12.972;2023-04-03T09:01:02;3.73;;;3.30;;
10389;SDS011;5241;47.830;12.972;2023-04-03T09:03:31;4.70;;;4.20;;
10389;SDS011;5241;47.830;12.972;2023-04-03T09:06:03;3.30;;;2.87;;
10389;SDS011;5241;47.830;12.972;2023-04-03T09:14:52;4.03;;;3.63;;
10389;SDS011;5241;47.830;12.972;2023-04-03T09:20:10;3.10;;;2.80;;
10389;SDS011;5241;47.830;12.972;2023-04-03T09:23:04;3.27;;;2.67;;
10389;SDS011;5241;47.830;12.972;2023-04-03T09:25:40;2.67;;;2.20;;
10389;SDS011;5241;47.830;12.972;2023-04-03T09:28:07;2.30;;;2.10;;
10389;SDS011;5241;47.830;12.972;2023-04-03T09:30:35;2.60;;;2.40;;
10389;SDS011;5241;47.830;12.972;2023-04-03T09:33:02;3.67;;;2.60;;
10389;SDS011;5241;47.830;12.972;2023-04-03T09:35:33;2.63;;;2.43;;
10389;SDS011;5241;47.830;12.972;2023-04-03T09:38:01;3.17;;;2.60;;
10389;SDS011;5241;47.830;12.972;2023-04-03T09:40:47;2.73;;;2.47;;
10389;SDS011;5241;47.830;12.972;2023-04-03T09:45:48;3.80;;;2.70;;
10389;SDS011;5241;47.830;12.972;2023-04-03T09:50:56;2.70;;;2.50;;
10389;SDS011;5241;47.830;12.972;2023-04-03T09:56:03;3.73;;;3.17;;
10389;SDS011;5241;47.830;12.972;2023-04-03T10:06:38;5.27;;;3.53;;
10389;SDS011;5241;47.830;12.972;2023-04-03T10:09:17;3.73;;;3.30;;
10389;SDS011;5241;47.830;12.972;2023-04-03T10:12:03;3.07;;;2.77;;
10389;SDS011;5241;47.830;12.972;2023-04-03T10:14:59;3.30;;;2.87;;
10389;SDS011;5241;47.830;12.972;2023-04-03T10:17:32;2.67;;;2.47;;
10389;SDS011;5241;47.830;12.972;2023-04-03T10:25:19;3.30;;;3.00;;
10389;SDS011;5241;47.830;12.972;2023-04-03T10:28:01;3.50;;;2.93;;
10389;SDS011;5241;47.830;12.972;2023-04-03T10:30:54;4.63;;;3.77;;
10389;SDS011;5241;47.830;12.972;2023-04-03T10:47:00;6.07;;;5.17;;
10389;SDS011;5241;47.830;12.972;2023-04-03T10:52:12;6.77;;;5.60;;
10389;SDS011;5241;47.830;12.972;2023-04-03T10:54:46;9.03;;;5.20;;
10389;SDS011;5241;47.830;12.972;2023-04-03T10:57:26;5.47;;;4.77;;
10389;SDS011;5241;47.830;12.972;2023-04-03T10:59:59;7.00;;;5.17;;
10389;SDS011;5241;47.830;12.972;2023-04-03T11:02:31;6.43;;;5.30;;
10389;SDS011;5241;47.830;12.972;2023-04-03T11:05:15;6.57;;;5.10;;
10389;SDS011;5241;47.830;12.972;2023-04-03T11:07:47;5.90;;;5.30;;
10389;SDS011;5241;47.830;12.972;2023-04-03T11:16:13;9.10;;;5.57;;
10389;SDS011;5241;47.830;12.972;2023-04-03T11:18:43;9.90;;;6.97;;
10389;SDS011;5241;47.830;12.972;2023-04-03T11:21:16;10.57;;;7.47;;
10389;SDS011;5241;47.830;12.972;2023-04-03T11:23:46;5.17;;;4.10;;
10389;SDS011;5241;47.830;12.972;2023-04-03T11:26:13;4.30;;;3.70;;
10389;SDS011;5241;47.830;12.972;2023-04-03T11:28:41;4.30;;;3.47;;
10389;SDS011;5241;47.830;12.972;2023-04-03T11:33:47;8.17;;;4.60;;
10389;SDS011;5241;47.830;12.972;2023-04-03T11:36:24;3.63;;;3.23;;
10389;SDS011;5241;47.830;12.972;2023-04-03T11:38:57;4.37;;;3.33;;
10389;SDS011;5241;47.830;12.972;2023-04-03T11:41:28;4.30;;;3.47;;
10389;SDS011;5241;47.830;12.972;2023-04-03T11:43:57;4.03;;;3.00;;
10389;SDS011;5241;47.830;12.972;2023-04-03T11:52:53;6.57;;;3.87;;
10389;SDS011;5241;47.830;12.972;2023-04-03T12:05:51;5.77;;;2.93;;
10389;SDS011;5241;47.830;12.972;2023-04-03T12:08:25;4.27;;;2.90;;
10389;SDS011;5241;47.830;12.972;2023-04-03T12:16:33;4.63;;;2.60;;
10389;SDS011;5241;47.830;12.972;2023-04-03T12:24:28;6.13;;;3.70;;
10389;SDS011;5241;47.830;12.972;2023-04-03T12:29:51;8.10;;;4.67;;
10389;SDS011;5241;47.830;12.972;2023-04-03T12:35:27;5.07;;;2.87;;
10389;SDS011;5241;47.830;12.972;2023-04-03T12:38:14;6.27;;;4.00;;
10389;SDS011;5241;47.830;12.972;2023-04-03T12:46:22;3.93;;;2.57;;
10389;SDS011;5241;47.830;12.972;2023-04-03T12:51:38;4.83;;;2.80;;
10389;SDS011;5241;47.830;12.972;2023-04-03T12:54:44;3.57;;;3.00;;
10389;SDS011;5241;47.830;12.972;2023-04-03T12:57:13;2.93;;;2.47;;
10389;SDS011;5241;47.830;12.972;2023-04-03T12:59:41;3.13;;;2.80;;
10389;SDS011;5241;47.830;12.972;2023-04-03T13:02:15;2.60;;;2.40;;
10389;SDS011;5241;47.830;12.972;2023-04-03T13:04:46;3.30;;;2.30;;
10389;SDS011;5241;47.830;12.972;2023-04-03T13:07:25;5.57;;;2.53;;
10389;SDS011;5241;47.830;12.972;2023-04-03T13:09:56;5.00;;;2.30;;
10389;SDS011;5241;47.830;12.972;2023-04-03T13:12:25;2.67;;;2.37;;
10389;SDS011;5241;47.830;12.972;2023-04-03T13:14:52;3.10;;;2.60;;
10389;SDS011;5241;47.830;12.972;2023-04-03T13:17:22;3.93;;;2.17;;
10389;SDS011;5241;47.830;12.972;2023-04-03T13:19:49;3.17;;;2.50;;
10389;SDS011;5241;47.830;12.972;2023-04-03T13:22:29;4.90;;;2.93;;
10389;SDS011;5241;47.830;12.972;2023-04-03T13:25:04;3.13;;;2.60;;
10389;SDS011;5241;47.830;12.972;2023-04-03T13:27:38;3.60;;;2.57;;
10389;SDS011;5241;47.830;12.972;2023-04-03T13:30:17;3.73;;;2.50;;
10389;SDS011;5241;47.830;12.972;2023-04-03T13:32:59;3.93;;;2.47;;
10389;SDS011;5241;47.830;12.972;2023-04-03T13:35:37;4.20;;;2.57;;
10389;SDS011;5241;47.830;12.972;2023-04-03T13:40:56;5.70;;;3.53;;
10389;SDS011;5241;47.830;12.972;2023-04-03T13:43:26;3.40;;;2.97;;
10389;SDS011;5241;47.830;12.972;2023-04-03T13:48:48;2.97;;;2.67;;
10389;SDS011;5241;47.830;12.972;2023-04-03T13:53:47;3.43;;;2.60;;
10389;SDS011;5241;47.830;12.972;2023-04-03T13:58:55;3.60;;;2.93;;
10389;SDS011;5241;47.830;12.972;2023-04-03T14:01:21;3.57;;;3.27;;
10389;SDS011;5241;47.830;12.972;2023-04-03T14:06:21;4.60;;;3.37;;
10389;SDS011;5241;47.830;12.972;2023-04-03T14:08:47;3.60;;;3.30;;
10389;SDS011;5241;47.830;12.972;2023-04-03T14:11:14;6.17;;;4.30;;
10389;SDS011;5241;47.830;12.972;2023-04-03T14:13:43;5.17;;;3.53;;
10389;SDS011;5241;47.830;12.972;2023-04-03T14:16:18;4.03;;;3.30;;
10389;SDS011;5241;47.830;12.972;2023-04-03T14:18:46;5.43;;;3.40;;
10389;SDS011;5241;47.830;12.972;2023-04-03T14:21:13;7.67;;;3.73;;
10389;SDS011;5241;47.830;12.972;2023-04-03T14:23:40;4.70;;;3.23;;
10389;SDS011;5241;47.830;12.972;2023-04-03T14:26:13;4.83;;;3.57;;
10389;SDS011;5241;47.830;12.972;2023-04-03T14:28:41;7.67;;;4.00;;
10389;SDS011;5241;47.830;12.972;2023-04-03T14:31:08;6.27;;;4.10;;
10389;SDS011;5241;47.830;12.972;2023-04-03T14:33:35;4.53;;;4.07;;
10389;SDS011;5241;47.830;12.972;2023-04-03T14:36:05;8.43;;;5.50;;
10389;SDS011;5241;47.830;12.972;2023-04-03T14:39:02;7.23;;;6.50;;
10389;SDS011;5241;47.830;12.972;2023-04-03T14:41:29;5.00;;;3.70;;
10389;SDS011;5241;47.830;12.972;2023-04-03T14:43:54;9.80;;;6.27;;
10389;SDS011;5241;47.830;12.972;2023-04-03T14:46:28;12.97;;;8.60;;
10389;SDS011;5241;47.830;12.972;2023-04-03T14:48:56;5.60;;;5.00;;
10389;SDS011;5241;47.830;12.972;2023-04-03T14:51:22;6.43;;;4.63;;
10389;SDS011;5241;47.830;12.972;2023-04-03T14:53:48;5.93;;;5.13;;
10389;SDS011;5241;47.830;12.972;2023-04-03T14:56:18;6.77;;;4.97;;
10389;SDS011;5241;47.830;12.972;2023-04-03T14:58:51;5.57;;;4.90;;
10389;SDS011;5241;47.830;12.972;2023-04-03T15:01:20;6.93;;;5.90;;
10389;SDS011;5241;47.830;12.972;2023-04-03T15:03:46;6.87;;;4.43;;
10389;SDS011;5241;47.830;12.972;2023-04-03T15:06:11;5.50;;;4.23;;
10389;SDS011;5241;47.830;12.972;2023-04-03T15:08:38;6.70;;;4.70;;
10389;SDS011;5241;47.830;12.972;2023-04-03T15:11:06;4.53;;;4.07;;
10389;SDS011;5241;47.830;12.972;2023-04-03T15:13:31;7.93;;;4.70;;
10389;SDS011;5241;47.830;12.972;2023-04-03T15:15:57;5.10;;;4.60;;
10389;SDS011;5241;47.830;12.972;2023-04-03T15:18:24;6.70;;;4.37;;
10389;SDS011;5241;47.830;12.972;2023-04-03T15:20:52;7.37;;;6.60;;
10389;SDS011;5241;47.830;12.972;2023-04-03T15:23:18;6.20;;;4.43;;
10389;SDS011;5241;47.830;12.972;2023-04-03T15:25:47;16.53;;;10.80;;
10389;SDS011;5241;47.830;12.972;2023-04-03T15:28:22;7.17;;;4.90;;
10389;SDS011;5241;47.830;12.972;2023-04-03T15:30:52;6.90;;;5.20;;
10389;SDS011;5241;47.830;12.972;2023-04-03T15:33:18;6.40;;;4.87;;
10389;SDS011;5241;47.830;12.972;2023-04-03T15:35:44;5.37;;;4.87;;
10389;SDS011;5241;47.830;12.972;2023-04-03T15:38:09;5.90;;;4.00;;
10389;SDS011;5241;47.830;12.972;2023-04-03T15:40:35;4.60;;;4.03;;
10389;SDS011;5241;47.830;12.972;2023-04-03T15:43:01;4.30;;;3.60;;
10389;SDS011;5241;47.830;12.972;2023-04-03T15:45:29;5.57;;;4.70;;
10389;SDS011;5241;47.830;12.972;2023-04-03T15:47:56;5.47;;;4.10;;
10389;SDS011;5241;47.830;12.972;2023-04-03T15:50:22;6.50;;;4.50;;
10389;SDS011;5241;47.830;12.972;2023-04-03T15:52:49;4.80;;;4.27;;
10389;SDS011;5241;47.830;12.972;2023-04-03T15:55:19;5.40;;;4.63;;
10389;SDS011;5241;47.830;12.972;2023-04-03T15:57:49;4.80;;;4.13;;
10389;SDS011;5241;47.830;12.972;2023-04-03T16:00:15;5.23;;;3.97;;
10389;SDS011;5241;47.830;12.972;2023-04-03T16:02:41;6.30;;;3.83;;
10389;SDS011;5241;47.830;12.972;2023-04-03T16:05:09;6.83;;;5.00;;
10389;SDS011;5241;47.830;12.972;2023-04-03T16:07:39;7.43;;;5.77;;
10389;SDS011;5241;47.830;12.972;2023-04-03T16:10:05;7.80;;;5.93;;
10389;SDS011;5241;47.830;12.972;2023-04-03T16:12:32;5.53;;;3.63;;
10389;SDS011;5241;47.830;12.972;2023-04-03T16:14:58;7.20;;;5.67;;
10389;SDS011;5241;47.830;12.972;2023-04-03T16:17:23;6.10;;;4.40;;
10389;SDS011;5241;47.830;12.972;2023-04-03T16:19:51;4.20;;;3.50;;
10389;SDS011;5241;47.830;12.972;2023-04-03T16:22:16;4.50;;;3.83;;
10389;SDS011;5241;47.830;12.972;2023-04-03T16:24:42;5.77;;;3.60;;
10389;SDS011;5241;47.830;12.972;2023-04-03T16:27:08;6.13;;;3.30;;
10389;SDS011;5241;47.830;12.972;2023-04-03T16:29:33;4.53;;;3.40;;
10389;SDS011;5241;47.830;12.972;2023-04-03T16:31:59;6.73;;;4.20;;
10389;SDS011;5241;47.830;12.972;2023-04-03T16:34:24;5.40;;;4.00;;
10389;SDS011;5241;47.830;12.972;2023-04-03T16:36:51;4.43;;;3.90;;
10389;SDS011;5241;47.830;12.972;2023-04-03T16:39:17;4.57;;;4.10;;
10389;SDS011;5241;47.830;12.972;2023-04-03T16:41:43;4.60;;;4.20;;
10389;SDS011;5241;47.830;12.972;2023-04-03T16:44:10;5.93;;;4.77;;
10389;SDS011;5241;47.830;12.972;2023-04-03T16:46:36;6.23;;;5.10;;